createdAt,value
2017-08-28T00:00:09.678Z,23.79
2017-08-28T00:02:41.351Z,23.77
2017-08-28T00:05:12.698Z,23.75
2017-08-28T00:07:44.016Z,23.70
2017-08-28T00:10:15.659Z,23.67
2017-08-28T00:12:47.033Z,23.66
2017-08-28T00:15:18.382Z,23.59
2017-08-28T00:17:50.051Z,23.57
2017-08-28T00:20:21.468Z,23.57
2017-08-28T00:25:35.510Z,23.56
2017-08-28T00:28:07.574Z,23.58
2017-08-28T00:30:39.378Z,23.55
2017-08-28T00:33:10.997Z,23.50
2017-08-28T00:35:42.577Z,23.48
2017-08-28T00:38:13.974Z,23.45
2017-08-28T00:40:45.365Z,23.41
2017-08-28T00:43:17.018Z,23.38
2017-08-28T00:45:48.387Z,23.35
2017-08-28T00:48:19.762Z,23.34
2017-08-28T00:50:51.407Z,23.30
2017-08-28T00:53:22.774Z,23.26
2017-08-28T00:55:54.397Z,23.20
2017-08-28T00:58:25.728Z,23.19
2017-08-28T01:00:57.124Z,23.16
2017-08-28T01:03:28.793Z,23.13
2017-08-28T01:06:00.320Z,23.11
2017-08-28T01:08:31.645Z,23.08
2017-08-28T01:11:06.021Z,23.02
2017-08-28T01:13:37.373Z,22.98
2017-08-28T01:16:08.976Z,22.91
2017-08-28T01:18:40.324Z,22.90
2017-08-28T01:21:12.031Z,22.84
2017-08-28T01:23:43.354Z,22.79
2017-08-28T01:26:14.680Z,22.77
2017-08-28T01:28:46.313Z,22.77
2017-08-28T01:31:17.676Z,22.77
2017-08-28T01:36:44.616Z,22.77
2017-08-28T01:39:15.959Z,22.75
2017-08-28T01:41:47.564Z,22.71
2017-08-28T01:44:18.872Z,22.68
2017-08-28T01:46:50.335Z,22.61
2017-08-28T01:49:21.658Z,22.57
2017-08-28T01:51:53.313Z,22.55
2017-08-28T01:54:24.644Z,22.51
2017-08-28T01:56:56.660Z,22.47
2017-08-28T01:59:28.510Z,22.47
2017-08-28T02:01:59.934Z,22.44
2017-08-28T02:04:31.265Z,22.43
2017-08-28T02:07:04.131Z,22.39
2017-08-28T02:09:35.450Z,22.34
2017-08-28T02:12:07.109Z,22.31
2017-08-28T02:14:38.730Z,22.33
2017-08-28T02:17:10.047Z,22.34
2017-08-28T02:19:41.445Z,22.34
2017-08-28T02:22:13.231Z,22.31
2017-08-28T02:24:44.615Z,22.28
2017-08-28T02:27:15.937Z,22.22
2017-08-28T02:29:47.581Z,22.17
2017-08-28T02:32:18.920Z,22.16
2017-08-28T02:34:50.240Z,22.11
2017-08-28T02:37:22.316Z,22.08
2017-08-28T02:39:53.664Z,22.07
2017-08-28T02:42:24.980Z,22.05
2017-08-28T02:44:56.636Z,22.00
2017-08-28T02:47:27.974Z,21.98
2017-08-28T02:49:59.392Z,21.95
2017-08-28T02:52:30.993Z,21.94
2017-08-28T02:55:03.964Z,21.91
2017-08-28T02:57:35.598Z,21.87
2017-08-28T03:00:07.292Z,21.86
2017-08-28T03:02:38.596Z,21.82
2017-08-28T03:05:10.213Z,21.81
2017-08-28T03:07:41.812Z,21.78
2017-08-28T03:10:13.114Z,21.76
2017-08-28T03:12:44.770Z,21.74
2017-08-28T03:15:16.074Z,21.73
2017-08-28T03:17:47.746Z,21.69
2017-08-28T03:20:19.043Z,21.61
2017-08-28T03:22:50.373Z,21.57
2017-08-28T03:25:21.975Z,21.53
2017-08-28T03:27:53.314Z,21.49
2017-08-28T03:30:24.654Z,21.47
2017-08-28T03:32:56.262Z,21.44
2017-08-28T03:35:27.628Z,21.42
2017-08-28T03:37:59.620Z,21.40
2017-08-28T03:40:30.910Z,21.36
2017-08-28T03:43:03.124Z,21.32
2017-08-28T03:45:34.807Z,21.28
2017-08-28T03:48:07.220Z,21.26
2017-08-28T03:50:38.604Z,21.22
2017-08-28T03:53:10.301Z,21.22
2017-08-28T03:55:41.703Z,21.20
2017-08-28T03:58:13.399Z,21.21
2017-08-28T04:00:45.113Z,21.20
2017-08-28T04:03:16.525Z,21.21
2017-08-28T04:05:48.167Z,21.16
2017-08-28T04:08:20.022Z,21.14
2017-08-28T04:10:51.317Z,21.17
2017-08-28T04:13:22.900Z,21.15
2017-08-28T04:15:54.202Z,21.11
2017-08-28T04:18:25.512Z,21.10
2017-08-28T04:20:56.896Z,21.06
2017-08-28T04:23:28.535Z,21.01
2017-08-28T04:25:59.860Z,21.01
2017-08-28T04:28:31.566Z,20.97
2017-08-28T04:31:04.771Z,20.93
2017-08-28T04:33:36.419Z,20.94
2017-08-28T04:36:07.751Z,20.95
2017-08-28T04:38:39.107Z,20.92
2017-08-28T04:41:11.022Z,20.89
2017-08-28T04:43:42.356Z,20.90
2017-08-28T04:46:13.997Z,20.88
2017-08-28T04:48:45.359Z,20.89
2017-08-28T04:51:17.341Z,20.93
2017-08-28T04:53:48.790Z,20.96
2017-08-28T04:56:20.140Z,20.98
2017-08-28T04:58:52.101Z,20.99
2017-08-28T05:01:23.524Z,21.01
2017-08-28T05:03:54.897Z,21.05
2017-08-28T05:06:26.241Z,21.08
2017-08-28T05:08:57.899Z,21.08
2017-08-28T05:11:29.469Z,21.09
2017-08-28T05:14:02.223Z,21.08
2017-08-28T05:16:34.003Z,21.11
2017-08-28T05:19:06.365Z,21.14
2017-08-28T05:21:37.929Z,21.20
2017-08-28T05:24:09.289Z,21.26
2017-08-28T05:26:41.050Z,21.32
2017-08-28T05:29:12.754Z,21.35
2017-08-28T05:31:44.082Z,21.38
2017-08-28T05:34:15.695Z,21.45
2017-08-28T05:36:47.094Z,21.55
2017-08-28T05:39:18.515Z,21.71
2017-08-28T05:41:50.126Z,21.91
2017-08-28T05:44:21.474Z,22.06
2017-08-28T05:46:52.804Z,22.08
2017-08-28T05:49:24.476Z,22.03
2017-08-28T05:51:55.822Z,22.03
2017-08-28T05:54:27.183Z,22.12
2017-08-28T05:56:58.828Z,22.30
2017-08-28T05:59:30.513Z,22.47
2017-08-28T06:02:03.631Z,22.49
2017-08-28T06:04:35.017Z,22.58
2017-08-28T06:07:07.301Z,22.71
2017-08-28T06:09:38.982Z,22.80
2017-08-28T06:12:10.323Z,22.86
2017-08-28T06:14:41.644Z,22.87
2017-08-28T06:17:13.286Z,22.78
2017-08-28T06:19:44.638Z,22.74
2017-08-28T06:22:16.230Z,22.83
2017-08-28T06:24:47.554Z,23.02
2017-08-28T06:27:18.903Z,23.22
2017-08-28T06:29:50.859Z,23.38
2017-08-28T06:32:22.156Z,23.54
2017-08-28T06:37:16.991Z,23.74
2017-08-28T06:39:48.365Z,23.87
2017-08-28T06:42:19.682Z,23.98
2017-08-28T06:44:51.249Z,24.10
2017-08-28T06:47:22.605Z,24.17
2017-08-28T06:49:54.244Z,24.25
2017-08-28T06:52:25.937Z,24.21
2017-08-28T06:54:57.449Z,24.34
2017-08-28T06:57:29.057Z,24.39
2017-08-28T07:00:00.617Z,24.49
2017-08-28T07:02:32.044Z,24.56
2017-08-28T07:05:05.355Z,24.61
2017-08-28T07:07:36.789Z,24.70
2017-08-28T07:10:08.763Z,24.73
2017-08-28T07:12:40.271Z,24.83
2017-08-28T07:15:11.812Z,24.71
2017-08-28T07:17:43.667Z,24.59
2017-08-28T07:20:15.145Z,24.51
2017-08-28T07:22:46.589Z,24.53
2017-08-28T07:25:18.273Z,25.00
2017-08-28T07:27:49.605Z,25.41
2017-08-28T07:30:21.562Z,25.65
2017-08-28T07:32:53.246Z,25.80
2017-08-28T07:35:24.611Z,25.98
2017-08-28T07:37:56.328Z,26.11
2017-08-28T07:40:27.763Z,26.24
2017-08-28T07:42:59.178Z,26.38
2017-08-28T07:45:30.579Z,26.51
2017-08-28T07:48:03.986Z,26.67
2017-08-28T07:50:35.707Z,26.75
2017-08-28T07:53:07.623Z,26.69
2017-08-28T07:55:39.153Z,26.70
2017-08-28T07:58:10.865Z,26.71
2017-08-28T08:00:42.263Z,26.83
2017-08-28T08:03:13.867Z,26.83
2017-08-28T08:05:45.231Z,26.89
2017-08-28T08:08:16.708Z,26.92
2017-08-28T08:10:48.598Z,27.00
2017-08-28T08:13:19.943Z,27.13
2017-08-28T08:15:51.630Z,27.12
2017-08-28T08:18:23.260Z,27.12
2017-08-28T08:20:54.773Z,27.32
2017-08-28T08:23:26.447Z,27.47
2017-08-28T08:25:57.870Z,27.48
2017-08-28T08:28:29.241Z,27.45
2017-08-28T08:31:02.800Z,27.55
2017-08-28T08:33:38.413Z,27.57
2017-08-28T08:36:09.718Z,27.57
2017-08-28T08:38:41.299Z,27.62
2017-08-28T08:41:12.724Z,27.74
2017-08-28T08:43:44.181Z,27.58
2017-08-28T08:46:15.501Z,27.65
2017-08-28T08:48:46.944Z,27.61
2017-08-28T08:51:18.612Z,27.56
2017-08-28T08:53:49.956Z,27.58
2017-08-28T08:56:21.281Z,27.83
2017-08-28T08:58:52.917Z,28.13
2017-08-28T09:01:24.312Z,28.28
2017-08-28T09:03:55.613Z,28.19
2017-08-28T09:06:26.904Z,27.89
2017-08-28T09:08:58.331Z,28.08
2017-08-28T09:11:29.935Z,28.46
2017-08-28T09:14:01.805Z,28.28
2017-08-28T09:16:33.655Z,28.38
2017-08-28T09:19:05.983Z,28.43
2017-08-28T09:21:37.285Z,28.56
2017-08-28T09:24:08.849Z,28.83
2017-08-28T09:26:40.123Z,28.53
2017-08-28T09:29:11.735Z,28.86
2017-08-28T09:31:43.075Z,28.86
2017-08-28T09:34:14.701Z,28.74
2017-08-28T09:36:46.051Z,28.99
2017-08-28T09:39:17.385Z,29.01
2017-08-28T09:41:50.139Z,29.46
2017-08-28T09:44:21.582Z,29.55
2017-08-28T09:46:52.976Z,29.49
2017-08-28T09:49:24.325Z,29.30
2017-08-28T09:51:56.069Z,29.76
2017-08-28T09:54:27.810Z,29.78
2017-08-28T09:56:59.291Z,29.58
2017-08-28T09:59:31.064Z,29.51
2017-08-28T10:02:03.872Z,29.77
2017-08-28T10:04:35.498Z,29.44
2017-08-28T10:07:07.431Z,29.54
2017-08-28T10:09:38.747Z,30.07
2017-08-28T10:12:10.366Z,29.77
2017-08-28T10:14:41.696Z,29.90
2017-08-28T10:17:13.021Z,29.97
2017-08-28T10:19:44.620Z,30.09
2017-08-28T10:22:15.959Z,29.78
2017-08-28T10:24:47.558Z,30.13
2017-08-28T10:27:17.925Z,30.72
2017-08-28T10:29:49.262Z,31.00
2017-08-28T10:32:20.932Z,30.75
2017-08-28T10:34:52.250Z,30.66
2017-08-28T10:37:23.562Z,31.36
2017-08-28T10:39:55.153Z,31.61
2017-08-28T10:42:26.668Z,32.00
2017-08-28T10:44:57.967Z,31.97
2017-08-28T10:47:29.639Z,32.39
2017-08-28T10:50:01.197Z,32.83
2017-08-28T10:52:33.000Z,32.73
2017-08-28T10:55:06.448Z,32.47
2017-08-28T10:57:37.779Z,32.95
2017-08-28T11:00:09.288Z,32.83
2017-08-28T11:02:40.932Z,32.41
2017-08-28T11:05:12.355Z,31.57
2017-08-28T11:07:43.808Z,31.52
2017-08-28T11:10:15.593Z,32.42
2017-08-28T11:12:47.009Z,32.23
2017-08-28T11:15:18.522Z,31.56
2017-08-28T11:17:50.176Z,31.73
2017-08-28T11:20:21.811Z,31.96
2017-08-28T11:22:53.403Z,33.69
2017-08-28T11:25:24.727Z,35.02
2017-08-28T11:27:56.119Z,35.81
2017-08-28T11:30:27.791Z,36.75
2017-08-28T11:32:59.104Z,37.29
2017-08-28T11:35:30.628Z,37.67
2017-08-28T11:38:04.514Z,38.01
2017-08-28T11:40:35.951Z,38.10
2017-08-28T11:43:07.707Z,38.19
2017-08-28T11:45:39.246Z,37.57
2017-08-28T11:48:10.554Z,38.14
2017-08-28T11:50:42.143Z,38.88
2017-08-28T11:53:13.545Z,40.30
2017-08-28T11:55:44.858Z,39.66
2017-08-28T11:58:16.492Z,38.16
2017-08-28T12:00:47.860Z,41.07
2017-08-28T12:03:19.166Z,44.29
2017-08-28T12:05:50.824Z,46.11
2017-08-28T12:08:22.146Z,48.31
2017-08-28T12:10:53.463Z,49.43
2017-08-28T12:13:25.032Z,50.49
2017-08-28T12:15:56.665Z,50.52
2017-08-28T12:18:28.359Z,45.88
2017-08-28T12:20:59.665Z,48.60
2017-08-28T12:23:30.976Z,51.49
2017-08-28T12:26:04.025Z,53.48
2017-08-28T12:28:35.416Z,55.11
2017-08-28T12:31:07.352Z,56.06
2017-08-28T12:33:38.946Z,53.90
2017-08-28T12:36:10.435Z,54.63
2017-08-28T12:38:41.990Z,56.78
2017-08-28T12:41:13.363Z,57.29
2017-08-28T12:43:44.724Z,56.55
2017-08-28T12:46:16.695Z,56.29
2017-08-28T12:48:48.006Z,57.13
2017-08-28T12:51:19.335Z,57.93
2017-08-28T12:53:51.929Z,58.43
2017-08-28T12:56:23.256Z,58.01
2017-08-28T12:58:54.608Z,57.29
2017-08-28T13:01:26.314Z,57.85
2017-08-28T13:03:57.603Z,57.90
2017-08-28T13:06:28.938Z,57.79
2017-08-28T13:09:00.618Z,58.63
2017-08-28T13:11:32.085Z,59.75
2017-08-28T13:14:05.072Z,59.83
2017-08-28T13:16:36.710Z,59.33
2017-08-28T13:19:08.633Z,59.14
2017-08-28T13:21:40.453Z,58.84
2017-08-28T13:24:11.744Z,59.46
2017-08-28T13:26:43.241Z,60.09
2017-08-28T13:29:14.848Z,60.11
2017-08-28T13:31:46.188Z,59.91
2017-08-28T13:34:17.536Z,60.18
2017-08-28T13:36:48.828Z,59.08
2017-08-28T13:39:20.284Z,59.50
2017-08-28T13:41:51.942Z,60.13
2017-08-28T13:44:23.324Z,60.01
2017-08-28T13:46:54.980Z,60.10
2017-08-28T13:52:28.325Z,60.11
2017-08-28T13:54:59.947Z,60.09
2017-08-28T13:57:31.279Z,60.17
2017-08-28T14:00:05.758Z,60.49
2017-08-28T14:02:37.367Z,59.96
2017-08-28T14:05:09.871Z,60.02
2017-08-28T14:07:45.238Z,59.87
2017-08-28T14:10:16.862Z,59.46
2017-08-28T14:12:48.181Z,58.88
2017-08-28T14:15:19.893Z,59.03
2017-08-28T14:17:51.187Z,58.44
2017-08-28T14:20:22.516Z,58.53
2017-08-28T14:22:55.143Z,58.07
2017-08-28T14:25:26.452Z,57.96
2017-08-28T14:27:57.773Z,58.41
2017-08-28T14:30:29.366Z,58.04
2017-08-28T14:33:00.814Z,58.12
2017-08-28T14:35:32.383Z,56.94
2017-08-28T14:38:05.973Z,56.71
2017-08-28T14:40:37.273Z,56.28
2017-08-28T14:43:09.193Z,55.51
2017-08-28T14:45:40.621Z,55.19
2017-08-28T14:48:12.201Z,52.68
2017-08-28T14:50:43.511Z,52.65
2017-08-28T14:53:15.188Z,52.79
2017-08-28T14:55:46.501Z,51.74
2017-08-28T14:58:17.873Z,52.50
2017-08-28T15:00:49.460Z,52.80
2017-08-28T15:03:20.775Z,52.84
2017-08-28T15:05:52.080Z,52.18
2017-08-28T15:08:23.369Z,52.07
2017-08-28T15:10:54.646Z,52.59
2017-08-28T15:13:26.240Z,52.11
2017-08-28T15:15:57.589Z,52.22
2017-08-28T15:18:28.898Z,51.66
2017-08-28T15:21:00.706Z,50.18
2017-08-28T15:23:32.037Z,50.46
2017-08-28T15:26:04.371Z,49.83
2017-08-28T15:28:35.709Z,49.93
2017-08-28T15:31:08.026Z,50.28
2017-08-28T15:33:39.764Z,49.65
2017-08-28T15:36:11.144Z,49.49
2017-08-28T15:38:42.513Z,48.16
2017-08-28T15:41:14.162Z,46.04
2017-08-28T15:43:45.482Z,46.32
2017-08-28T15:46:16.945Z,46.94
2017-08-28T15:48:48.267Z,47.03
2017-08-28T15:51:19.621Z,46.34
2017-08-28T15:53:51.267Z,45.85
2017-08-28T15:56:22.602Z,44.16
2017-08-28T15:58:54.033Z,43.26
2017-08-28T16:01:25.667Z,44.00
2017-08-28T16:03:57.019Z,45.10
2017-08-28T16:06:28.421Z,46.48
2017-08-28T16:09:00.000Z,47.13
2017-08-28T16:11:31.343Z,46.98
2017-08-28T16:14:04.835Z,46.99
2017-08-28T16:16:36.159Z,47.27
2017-08-28T16:19:08.336Z,47.25
2017-08-28T16:21:39.959Z,46.41
2017-08-28T16:24:11.326Z,46.22
2017-08-28T16:26:42.892Z,46.08
2017-08-28T16:29:14.192Z,45.81
2017-08-28T16:31:45.505Z,45.34
2017-08-28T16:34:18.115Z,45.37
2017-08-28T16:36:49.452Z,45.76
2017-08-28T16:39:20.769Z,45.44
2017-08-28T16:41:52.425Z,44.70
2017-08-28T16:44:23.759Z,44.80
2017-08-28T16:46:55.437Z,44.02
2017-08-28T16:49:26.746Z,43.02
2017-08-28T16:51:58.086Z,42.52
2017-08-28T16:54:29.707Z,42.64
2017-08-28T16:57:01.375Z,41.53
2017-08-28T16:59:33.114Z,41.37
2017-08-28T17:02:06.902Z,42.75
2017-08-28T17:04:38.219Z,42.42
2017-08-28T17:07:09.812Z,41.05
2017-08-28T17:09:46.370Z,39.21
2017-08-28T17:12:18.018Z,37.40
2017-08-28T17:14:49.387Z,35.61
2017-08-28T17:17:20.769Z,34.50
2017-08-28T17:19:52.366Z,33.55
2017-08-28T17:22:24.228Z,32.93
2017-08-28T17:24:55.577Z,32.54
2017-08-28T17:27:27.203Z,32.10
2017-08-28T17:29:58.888Z,31.70
2017-08-28T17:32:30.488Z,31.42
2017-08-28T17:35:02.114Z,31.24
2017-08-28T17:37:33.434Z,30.96
2017-08-28T17:40:07.397Z,30.82
2017-08-28T17:42:38.772Z,30.64
2017-08-28T17:45:10.953Z,30.41
2017-08-28T17:47:42.478Z,30.29
2017-08-28T17:50:13.865Z,30.13
2017-08-28T17:52:45.519Z,29.97
2017-08-28T17:55:16.859Z,29.88
2017-08-28T17:57:48.202Z,29.73
2017-08-28T18:00:20.234Z,29.69
2017-08-28T18:02:51.680Z,29.58
2017-08-28T18:05:23.305Z,29.42
2017-08-28T18:07:54.645Z,29.29
2017-08-28T18:10:26.012Z,29.17
2017-08-28T18:12:57.836Z,29.10
2017-08-28T18:15:29.249Z,29.04
2017-08-28T18:18:00.885Z,28.99
2017-08-28T18:20:32.998Z,28.90
2017-08-28T18:23:05.651Z,28.81
2017-08-28T18:25:39.117Z,28.79
2017-08-28T18:28:13.840Z,28.77
2017-08-28T18:30:45.992Z,28.62
2017-08-28T18:33:21.147Z,28.56
2017-08-28T18:35:52.882Z,28.51
2017-08-28T18:38:24.221Z,28.45
2017-08-28T18:40:55.617Z,28.52
2017-08-28T18:43:27.265Z,28.46
2017-08-28T18:45:58.981Z,28.43
2017-08-28T18:48:30.550Z,28.42
2017-08-28T18:51:02.853Z,28.42
2017-08-28T18:53:34.279Z,28.38
2017-08-28T18:56:08.510Z,28.37
2017-08-28T18:58:39.993Z,28.29
2017-08-28T19:01:11.738Z,28.24
2017-08-28T19:03:43.465Z,28.22
2017-08-28T19:06:14.867Z,28.22
2017-08-28T19:08:46.331Z,28.20
2017-08-28T19:11:18.012Z,28.20
2017-08-28T19:13:49.497Z,28.10
2017-08-28T19:16:20.952Z,28.00
2017-08-28T19:18:52.433Z,27.93
2017-08-28T19:21:23.770Z,27.89
2017-08-28T19:23:55.415Z,27.82
2017-08-28T19:26:26.727Z,27.78
2017-08-28T19:28:58.105Z,27.72
2017-08-28T19:31:30.124Z,27.69
2017-08-28T19:34:39.201Z,27.62
2017-08-28T19:37:11.040Z,27.63
2017-08-28T19:39:42.451Z,27.56
2017-08-28T19:42:13.790Z,27.49
2017-08-28T19:44:45.423Z,27.48
2017-08-28T19:47:16.779Z,27.45
2017-08-28T19:49:48.362Z,27.38
2017-08-28T19:52:21.072Z,27.30
2017-08-28T19:54:52.415Z,27.31
2017-08-28T19:57:24.035Z,27.29
2017-08-28T19:59:55.381Z,27.30
2017-08-28T20:02:31.096Z,27.28
2017-08-28T20:05:03.824Z,27.23
2017-08-28T20:07:35.434Z,27.23
2017-08-28T20:10:08.111Z,27.13
2017-08-28T20:12:39.954Z,27.13
2017-08-28T20:15:11.416Z,27.17
2017-08-28T20:17:42.757Z,27.18
2017-08-28T20:20:14.443Z,27.21
2017-08-28T20:22:45.780Z,27.17
2017-08-28T20:25:17.159Z,27.15
2017-08-28T20:27:48.944Z,27.12
2017-08-28T20:30:20.299Z,27.06
2017-08-28T20:32:52.179Z,27.05
2017-08-28T20:35:23.836Z,27.03
2017-08-28T20:37:55.232Z,26.98
2017-08-28T20:40:27.231Z,26.95
2017-08-28T20:42:58.709Z,26.93
2017-08-28T20:45:30.070Z,26.88
2017-08-28T20:48:02.642Z,26.81
2017-08-28T20:50:34.162Z,26.70
2017-08-28T20:53:06.482Z,26.61
2017-08-28T20:55:38.196Z,26.57
2017-08-28T20:58:10.521Z,26.55
2017-08-28T21:00:41.859Z,26.59
2017-08-28T21:03:13.854Z,26.52
2017-08-28T21:05:45.141Z,26.47
2017-08-28T21:08:16.631Z,26.41
2017-08-28T21:10:51.596Z,26.40
2017-08-28T21:13:26.609Z,26.34
2017-08-28T21:15:59.341Z,26.33
2017-08-28T21:18:30.813Z,26.26
2017-08-28T21:21:02.621Z,26.27
2017-08-28T21:23:34.078Z,26.29
2017-08-28T21:26:07.705Z,26.31
2017-08-28T21:28:39.417Z,26.34
2017-08-28T21:31:10.849Z,26.28
2017-08-28T21:33:42.937Z,26.23
2017-08-28T21:36:14.384Z,26.16
2017-08-28T21:38:45.728Z,26.11
2017-08-28T21:41:17.430Z,26.06
2017-08-28T21:43:48.862Z,26.00
2017-08-28T21:46:20.317Z,25.90
2017-08-28T21:48:52.093Z,25.80
2017-08-28T21:51:23.441Z,25.76
2017-08-28T21:53:55.114Z,25.70
2017-08-28T21:56:26.676Z,25.59
2017-08-28T21:58:58.041Z,25.55
2017-08-28T22:01:29.701Z,25.45
2017-08-28T22:04:02.616Z,25.38
2017-08-28T22:06:34.267Z,25.33
2017-08-28T22:09:07.286Z,25.35
2017-08-28T22:11:42.160Z,25.31
2017-08-28T22:14:13.700Z,25.27
2017-08-28T22:16:45.371Z,25.22
2017-08-28T22:19:16.728Z,25.11
2017-08-28T22:21:49.167Z,25.03
2017-08-28T22:24:20.625Z,25.02
2017-08-28T22:26:52.055Z,25.01
2017-08-28T22:29:24.547Z,24.97
2017-08-28T22:31:57.811Z,24.88
2017-08-28T22:34:31.785Z,24.82
2017-08-28T22:37:06.279Z,24.80
2017-08-28T22:39:38.081Z,24.80
2017-08-28T22:42:11.761Z,24.76
2017-08-28T22:44:43.173Z,24.73
2017-08-28T22:47:14.509Z,24.68
2017-08-28T22:49:45.932Z,24.71
2017-08-28T22:52:17.437Z,24.66
2017-08-28T22:54:49.113Z,24.63
2017-08-28T22:57:20.720Z,24.61
2017-08-28T22:59:52.297Z,24.53
2017-08-28T23:02:24.128Z,24.45
2017-08-28T23:04:55.886Z,24.34
2017-08-28T23:07:27.270Z,24.33
2017-08-28T23:09:58.621Z,24.35
2017-08-28T23:12:30.169Z,24.30
2017-08-28T23:15:02.169Z,24.29
2017-08-28T23:17:33.666Z,24.30
2017-08-28T23:20:07.321Z,24.32
2017-08-28T23:22:39.985Z,24.28
2017-08-28T23:25:11.454Z,24.25
2017-08-28T23:27:43.071Z,24.25
2017-08-28T23:30:14.455Z,24.23
2017-08-28T23:32:45.773Z,24.14
2017-08-28T23:35:17.810Z,24.12
2017-08-28T23:37:49.217Z,24.14
2017-08-28T23:40:20.876Z,24.13
2017-08-28T23:42:52.498Z,24.08
2017-08-28T23:45:24.420Z,23.97
2017-08-28T23:47:56.047Z,23.94
2017-08-28T23:50:27.695Z,23.99
2017-08-28T23:52:59.027Z,24.01
2017-08-28T23:55:30.653Z,24.01
2017-08-28T23:58:03.820Z,23.96
